createdAt,value
2018-11-13T00:00:18.362Z,62.40
2018-11-13T00:02:46.687Z,62.40
2018-11-13T00:05:15.011Z,62.20
2018-11-13T00:07:43.742Z,62.30
2018-11-13T00:10:12.534Z,62.30
2018-11-13T00:12:41.182Z,62.30
2018-11-13T00:15:09.782Z,62.10
2018-11-13T00:17:38.942Z,62.00
2018-11-13T00:20:09.187Z,62.40
2018-11-13T00:22:38.499Z,62.20
2018-11-13T00:25:07.650Z,62.20
2018-11-13T00:27:35.968Z,62.10
2018-11-13T00:30:04.834Z,62.30
2018-11-13T00:32:33.118Z,62.00
2018-11-13T00:35:01.763Z,62.00
2018-11-13T00:37:30.064Z,62.20
2018-11-13T00:39:58.412Z,62.00
2018-11-13T00:42:26.859Z,62.00
2018-11-13T00:44:56.202Z,62.10
2018-11-13T00:47:25.043Z,62.10
2018-11-13T00:49:53.374Z,61.90
2018-11-13T00:52:22.312Z,61.90
2018-11-13T00:54:50.656Z,62.00
2018-11-13T00:57:18.947Z,62.10
2018-11-13T00:59:47.301Z,61.90
2018-11-13T01:16:41.488Z,61.90
2018-11-13T01:19:10.801Z,61.80
2018-11-13T01:21:39.518Z,61.90
2018-11-13T01:24:07.984Z,61.90
2018-11-13T01:26:36.259Z,62.00
2018-11-13T01:29:04.542Z,61.90
2018-11-13T01:31:32.843Z,61.50
2018-11-13T01:34:01.119Z,61.60
2018-11-13T01:36:30.451Z,61.40
2018-11-13T01:38:59.798Z,61.40
2018-11-13T01:41:28.138Z,61.60
2018-11-13T01:43:56.422Z,61.70
2018-11-13T01:46:24.736Z,61.60
2018-11-13T01:48:53.172Z,61.50
2018-11-13T01:51:21.315Z,61.50
2018-11-13T01:53:49.608Z,61.50
2018-11-13T01:56:18.198Z,61.60
2018-11-13T01:58:47.737Z,61.50
2018-11-13T02:01:16.042Z,61.60
2018-11-13T02:03:44.334Z,61.60
2018-11-13T02:06:12.650Z,61.60
2018-11-13T02:08:40.902Z,61.50
2018-11-13T02:11:09.217Z,61.60
2018-11-13T02:13:37.551Z,61.70
2018-11-13T02:16:07.045Z,61.60
2018-11-13T02:18:36.354Z,61.40
2018-11-13T02:21:04.717Z,61.40
2018-11-13T02:23:32.998Z,61.20
2018-11-13T02:26:01.351Z,61.40
2018-11-13T02:28:29.658Z,61.40
2018-11-13T02:31:00.382Z,61.20
2018-11-13T02:33:29.390Z,61.40
2018-11-13T02:35:57.693Z,61.40
2018-11-13T02:38:26.025Z,61.40
2018-11-13T02:40:54.349Z,61.40
2018-11-13T02:43:22.627Z,61.50
2018-11-13T02:45:51.938Z,61.50
2018-11-13T02:48:20.496Z,61.40
2018-11-13T02:50:48.968Z,61.30
2018-11-13T02:53:17.258Z,61.30
2018-11-13T02:55:46.565Z,61.30
2018-11-13T02:58:14.831Z,61.40
2018-11-13T03:00:43.128Z,61.40
2018-11-13T03:03:12.430Z,61.40
2018-11-13T03:05:41.020Z,61.30
2018-11-13T03:08:09.305Z,61.30
2018-11-13T03:10:38.102Z,61.30
2018-11-13T03:13:06.411Z,61.30
2018-11-13T03:15:35.750Z,61.20
2018-11-13T03:18:04.087Z,61.20
2018-11-13T03:20:32.402Z,61.00
2018-11-13T03:23:01.702Z,61.10
2018-11-13T03:25:32.673Z,61.00
2018-11-13T03:28:01.838Z,61.10
2018-11-13T03:30:30.127Z,61.00
2018-11-13T03:32:58.418Z,61.00
2018-11-13T03:35:26.687Z,61.10
2018-11-13T03:37:54.982Z,61.10
2018-11-13T03:40:23.266Z,61.20
2018-11-13T03:42:51.721Z,61.10
2018-11-13T03:45:20.182Z,61.00
2018-11-13T03:47:48.498Z,60.90
2018-11-13T03:50:20.912Z,60.90
2018-11-13T03:52:49.307Z,61.00
2018-11-13T03:55:18.030Z,60.90
2018-11-13T03:57:46.950Z,60.90
2018-11-13T04:00:16.471Z,60.80
2018-11-13T04:02:45.327Z,60.80
2018-11-13T04:05:17.559Z,61.00
2018-11-13T04:07:50.958Z,60.80
2018-11-13T04:10:20.043Z,60.90
2018-11-13T04:12:48.341Z,60.90
2018-11-13T04:15:18.944Z,60.90
2018-11-13T04:17:47.250Z,60.80
2018-11-13T04:20:18.381Z,60.90
2018-11-13T04:22:47.030Z,60.80
2018-11-13T04:25:15.307Z,60.80
2018-11-13T04:27:43.637Z,61.10
2018-11-13T04:30:13.256Z,60.90
2018-11-13T04:32:42.798Z,60.90
2018-11-13T04:35:13.102Z,61.00
2018-11-13T04:37:41.430Z,61.00
2018-11-13T04:40:12.010Z,61.00
2018-11-13T04:42:40.821Z,61.00
2018-11-13T04:45:13.371Z,61.00
2018-11-13T04:47:41.863Z,60.90
2018-11-13T04:50:12.521Z,61.10
2018-11-13T04:52:40.898Z,61.10
2018-11-13T04:55:09.809Z,61.10
2018-11-13T04:57:38.371Z,61.10
2018-11-13T05:00:09.906Z,60.90
2018-11-13T05:02:38.612Z,61.10
2018-11-13T05:05:07.423Z,60.80
2018-11-13T05:07:36.696Z,61.00
2018-11-13T05:10:06.572Z,60.90
2018-11-13T05:12:34.850Z,61.00
2018-11-13T05:15:03.470Z,61.00
2018-11-13T05:17:32.483Z,61.20
2018-11-13T05:20:01.651Z,61.10
2018-11-13T05:22:30.249Z,61.20
2018-11-13T05:24:58.595Z,61.20
2018-11-13T05:27:26.914Z,61.20
2018-11-13T05:29:55.210Z,61.20
2018-11-13T05:32:23.515Z,61.20
2018-11-13T05:34:51.950Z,61.10
2018-11-13T05:37:21.272Z,61.20
2018-11-13T05:39:49.967Z,61.20
2018-11-13T05:42:19.015Z,61.20
2018-11-13T05:44:47.538Z,61.20
2018-11-13T05:47:15.857Z,61.20
2018-11-13T05:49:45.802Z,61.20
2018-11-13T05:52:14.125Z,61.30
2018-11-13T05:54:42.418Z,61.30
2018-11-13T05:57:11.494Z,61.30
2018-11-13T05:59:39.812Z,61.20
2018-11-13T06:02:08.290Z,61.30
2018-11-13T06:04:36.594Z,61.20
2018-11-13T06:07:05.901Z,61.30
2018-11-13T06:09:34.206Z,61.10
2018-11-13T06:12:03.562Z,61.30
2018-11-13T06:14:31.850Z,61.30
2018-11-13T06:17:00.419Z,61.20
2018-11-13T06:19:28.729Z,61.20
2018-11-13T06:21:57.042Z,61.10
2018-11-13T06:24:26.414Z,61.20
2018-11-13T06:26:54.733Z,61.10
2018-11-13T06:29:24.037Z,61.10
2018-11-13T06:31:52.378Z,61.10
2018-11-13T06:34:21.442Z,61.20
2018-11-13T06:36:50.043Z,61.20
2018-11-13T06:39:18.334Z,61.20
2018-11-13T06:41:47.479Z,61.50
2018-11-13T06:44:15.944Z,61.10
2018-11-13T06:46:44.233Z,60.80
2018-11-13T06:49:12.555Z,60.50
2018-11-13T06:51:40.837Z,60.80
2018-11-13T06:54:20.849Z,61.10
2018-11-13T06:56:50.898Z,61.30
2018-11-13T06:59:19.920Z,61.10
2018-11-13T07:01:49.098Z,61.20
2018-11-13T07:04:18.222Z,61.10
2018-11-13T07:06:48.380Z,61.30
2018-11-13T07:09:20.294Z,61.40
2018-11-13T07:11:50.187Z,61.40
2018-11-13T07:14:19.098Z,61.40
2018-11-13T07:16:48.128Z,61.40
2018-11-13T07:19:17.215Z,61.40
2018-11-13T07:21:46.281Z,61.30
2018-11-13T07:24:16.295Z,61.40
2018-11-13T07:26:45.304Z,61.20
2018-11-13T07:29:14.294Z,61.10
2018-11-13T07:31:43.155Z,61.30
2018-11-13T07:34:12.100Z,61.40
2018-11-13T07:36:40.407Z,61.30
2018-11-13T07:39:09.756Z,61.60
2018-11-13T07:41:39.046Z,61.30
2018-11-13T07:44:07.378Z,61.70
2018-11-13T07:46:35.765Z,61.60
2018-11-13T07:49:04.022Z,61.60
2018-11-13T07:51:33.183Z,61.20
2018-11-13T07:54:01.538Z,61.40
2018-11-13T07:56:29.788Z,61.40
2018-11-13T07:58:58.209Z,61.60
2018-11-13T08:01:27.526Z,61.40
2018-11-13T08:03:55.839Z,61.50
2018-11-13T08:06:24.216Z,61.40
2018-11-13T08:08:52.466Z,61.50
2018-11-13T08:11:21.393Z,61.50
2018-11-13T08:13:49.829Z,61.30
2018-11-13T08:16:18.114Z,61.30
2018-11-13T08:18:46.453Z,61.30
2018-11-13T08:21:14.763Z,61.40
2018-11-13T08:23:43.073Z,61.30
2018-11-13T08:26:11.400Z,61.30
2018-11-13T08:28:39.764Z,61.30
2018-11-13T08:31:08.012Z,61.30
2018-11-13T08:33:36.506Z,61.30
2018-11-13T08:36:04.791Z,61.40
2018-11-13T08:38:33.209Z,61.40
2018-11-13T08:41:02.511Z,61.40
2018-11-13T08:43:30.806Z,61.40
2018-11-13T08:45:59.125Z,61.40
2018-11-13T08:48:27.402Z,61.50
2018-11-13T08:50:55.783Z,61.50
2018-11-13T08:53:24.038Z,61.50
2018-11-13T08:55:52.366Z,61.40
2018-11-13T08:58:20.711Z,61.30
2018-11-13T09:00:49.975Z,61.30
2018-11-13T09:03:18.195Z,61.20
2018-11-13T09:05:46.449Z,61.20
2018-11-13T09:08:14.734Z,61.30
2018-11-13T09:10:43.043Z,61.20
2018-11-13T09:13:11.339Z,61.10
2018-11-13T09:15:39.671Z,61.30
2018-11-13T09:18:07.983Z,61.40
